createdAt,value
2023-05-25T00:00:16.932Z,99098.75
2023-05-25T00:01:54.960Z,99104.09
2023-05-25T00:03:28.868Z,99099.13
2023-05-25T00:05:02.356Z,99105.69
2023-05-25T00:06:37.426Z,99097.13
2023-05-25T00:08:10.910Z,99094.06
2023-05-25T00:09:46.185Z,99100.13
2023-05-25T00:11:19.787Z,99093.78
2023-05-25T00:12:53.122Z,99106.25
2023-05-25T00:14:26.142Z,99101.19
2023-05-25T00:15:59.480Z,99098.03
2023-05-25T00:17:34.158Z,99097.38
2023-05-25T00:19:10.784Z,99105.53
2023-05-25T00:20:46.084Z,99103.13
2023-05-25T00:22:20.673Z,99104.25
2023-05-25T00:23:53.914Z,99106.16
2023-05-25T00:25:27.607Z,99104.53
2023-05-25T00:27:01.647Z,99106.34
2023-05-25T00:28:35.135Z,99106.34
2023-05-25T00:30:09.638Z,99098.34
2023-05-25T00:31:41.980Z,99103.69
2023-05-25T00:33:16.842Z,99103.84
2023-05-25T00:34:50.269Z,99103.09
2023-05-25T00:36:24.189Z,99108.50
2023-05-25T00:37:57.650Z,99101.34
2023-05-25T00:39:31.070Z,99098.78
2023-05-25T00:41:06.040Z,99104.03
2023-05-25T00:42:40.276Z,99106.50
2023-05-25T00:44:14.915Z,99103.09
2023-05-25T00:45:49.311Z,99105.63
2023-05-25T00:47:23.972Z,99108.22
2023-05-25T00:48:57.664Z,99111.84
2023-05-25T00:50:39.245Z,99110.63
2023-05-25T00:52:14.126Z,99107.00
2023-05-25T00:53:47.077Z,99110.88
2023-05-25T00:55:22.807Z,99111.84
2023-05-25T00:56:58.832Z,99119.91
2023-05-25T00:58:35.153Z,99111.84
2023-05-25T01:00:12.030Z,99109.97
2023-05-25T01:01:46.039Z,99108.03
2023-05-25T01:03:22.577Z,99111.50
2023-05-25T01:05:02.754Z,99106.91
2023-05-25T01:06:39.006Z,99111.31
2023-05-25T01:08:14.919Z,99108.84
2023-05-25T01:09:53.715Z,99111.84
2023-05-25T01:11:37.986Z,99112.88
2023-05-25T01:13:15.991Z,99115.78
2023-05-25T01:14:50.897Z,99113.59
2023-05-25T01:16:26.095Z,99111.00
2023-05-25T01:17:59.909Z,99122.00
2023-05-25T01:19:36.461Z,99123.53
2023-05-25T01:21:15.287Z,99116.50
2023-05-25T01:22:58.793Z,99116.00
2023-05-25T01:24:36.594Z,99118.22
2023-05-25T01:26:14.327Z,99116.50
2023-05-25T01:27:52.779Z,99113.75
2023-05-25T01:29:28.198Z,99117.19
2023-05-25T01:31:03.673Z,99113.25
2023-05-25T01:32:38.718Z,99120.47
2023-05-25T01:34:15.256Z,99124.25
2023-05-25T01:35:49.062Z,99120.78
2023-05-25T01:37:26.592Z,99115.66
2023-05-25T01:38:59.490Z,99114.72
2023-05-25T01:40:32.658Z,99119.06
2023-05-25T01:42:07.717Z,99113.91
2023-05-25T01:43:41.904Z,99112.88
2023-05-25T01:45:17.180Z,99115.47
2023-05-25T01:46:57.864Z,99109.31
2023-05-25T01:48:38.961Z,99112.03
2023-05-25T01:50:20.468Z,99116.59
2023-05-25T01:52:01.980Z,99114.38
2023-05-25T01:53:41.676Z,99107.59
2023-05-25T01:55:18.102Z,99108.06
2023-05-25T01:56:53.896Z,99117.81
2023-05-25T01:58:28.342Z,99117.16
2023-05-25T02:00:03.105Z,99120.78
2023-05-25T02:01:47.744Z,99117.34
2023-05-25T02:03:22.019Z,99111.41
2023-05-25T02:04:56.693Z,99126.44
2023-05-25T02:06:28.890Z,99120.44
2023-05-25T02:08:02.212Z,99130.03
2023-05-25T02:09:39.968Z,99128.31
2023-05-25T02:11:13.591Z,99132.25
2023-05-25T02:12:46.886Z,99138.53
2023-05-25T02:14:19.239Z,99133.13
2023-05-25T02:15:52.867Z,99135.69
2023-05-25T02:17:28.815Z,99132.41
2023-05-25T02:19:01.063Z,99132.41
2023-05-25T02:20:34.460Z,99136.09
2023-05-25T02:22:07.971Z,99132.56
2023-05-25T02:23:41.402Z,99140.56
2023-05-25T02:25:16.042Z,99140.41
2023-05-25T02:26:49.325Z,99131.22
2023-05-25T02:28:22.724Z,99142.59
2023-05-25T02:29:56.156Z,99138.97
2023-05-25T02:31:31.657Z,99146.00
2023-05-25T02:33:05.149Z,99142.38
2023-05-25T02:34:38.662Z,99146.00
2023-05-25T02:36:12.543Z,99141.47
2023-05-25T02:37:45.761Z,99132.09
2023-05-25T02:39:18.851Z,99147.72
2023-05-25T02:40:54.654Z,99144.97
2023-05-25T02:42:29.678Z,99149.09
2023-05-25T02:44:05.373Z,99150.72
2023-05-25T02:45:39.087Z,99150.66
2023-05-25T02:47:12.504Z,99152.19
2023-05-25T02:48:46.609Z,99154.84
2023-05-25T02:50:20.327Z,99150.31
2023-05-25T02:51:57.284Z,99157.34
2023-05-25T02:53:30.812Z,99155.66
2023-05-25T02:55:04.541Z,99159.25
2023-05-25T02:56:42.956Z,99159.44
2023-05-25T02:58:16.747Z,99168.53
2023-05-25T03:00:04.013Z,99158.00
2023-05-25T03:01:36.654Z,99157.31
2023-05-25T03:03:10.261Z,99167.31
2023-05-25T03:04:44.170Z,99166.69
2023-05-25T03:06:17.526Z,99178.91
2023-05-25T03:07:52.019Z,99173.28
2023-05-25T03:09:25.139Z,99173.78
2023-05-25T03:10:57.616Z,99174.31
2023-05-25T03:12:32.350Z,99177.84
2023-05-25T03:14:06.274Z,99177.59
2023-05-25T03:15:41.223Z,99166.81
2023-05-25T03:17:15.794Z,99171.94
2023-05-25T03:18:50.283Z,99175.56
2023-05-25T03:20:24.837Z,99173.84
2023-05-25T03:21:58.852Z,99176.56
2023-05-25T03:23:32.212Z,99175.72
2023-05-25T03:25:12.146Z,99168.53
2023-05-25T03:26:45.854Z,99168.53
2023-05-25T03:28:20.639Z,99170.22
2023-05-25T03:29:53.883Z,99176.34
2023-05-25T03:31:27.520Z,99171.63
2023-05-25T03:33:01.317Z,99178.47
2023-05-25T03:34:40.447Z,99179.00
2023-05-25T03:36:17.449Z,99178.84
2023-05-25T03:37:51.013Z,99190.19
2023-05-25T03:39:24.436Z,99188.13
2023-05-25T03:40:59.991Z,99179.03
2023-05-25T03:42:33.556Z,99180.56
2023-05-25T03:44:08.534Z,99187.28
2023-05-25T03:45:42.955Z,99185.91
2023-05-25T03:47:16.636Z,99187.28
2023-05-25T03:48:49.962Z,99185.72
2023-05-25T03:50:22.404Z,99191.66
2023-05-25T03:51:56.294Z,99191.50
2023-05-25T03:53:29.441Z,99188.50
2023-05-25T03:55:04.574Z,99185.31
2023-05-25T03:56:38.162Z,99182.97
2023-05-25T03:58:12.038Z,99181.66
2023-05-25T03:59:47.035Z,99177.78
2023-05-25T04:01:20.382Z,99173.44
2023-05-25T04:02:53.782Z,99182.22
2023-05-25T04:04:28.337Z,99186.44
2023-05-25T04:06:02.266Z,99183.47
2023-05-25T04:07:37.064Z,99187.22
2023-05-25T04:09:09.374Z,99182.84
2023-05-25T04:10:42.778Z,99196.59
2023-05-25T04:12:16.096Z,99193.38
2023-05-25T04:13:49.350Z,99198.34
2023-05-25T04:15:25.276Z,99195.47
2023-05-25T04:17:12.308Z,99195.81
2023-05-25T04:18:45.567Z,99201.06
2023-05-25T04:20:19.703Z,99189.09
2023-05-25T04:21:53.660Z,99195.69
2023-05-25T04:23:27.861Z,99191.47
2023-05-25T04:25:01.609Z,99188.19
2023-05-25T04:26:35.027Z,99189.41
2023-05-25T04:28:09.751Z,99204.75
2023-05-25T04:30:01.024Z,99208.06
2023-05-25T04:32:05.590Z,99201.66
2023-05-25T04:34:11.069Z,99201.84
2023-05-25T04:35:50.608Z,99202.25
2023-05-25T04:37:27.546Z,99197.38
2023-05-25T04:39:04.337Z,99203.50
2023-05-25T04:40:42.025Z,99200.34
2023-05-25T04:42:15.326Z,99199.59
2023-05-25T04:44:06.543Z,99196.59
2023-05-25T04:45:43.121Z,99202.56
2023-05-25T04:47:19.336Z,99194.25
2023-05-25T04:48:52.828Z,99196.97
2023-05-25T04:50:26.108Z,99203.34
2023-05-25T04:51:59.603Z,99202.44
2023-05-25T04:53:35.832Z,99207.66
2023-05-25T04:55:11.335Z,99204.50
2023-05-25T04:56:48.019Z,99203.31
2023-05-25T04:58:21.325Z,99199.41
2023-05-25T04:59:54.641Z,99199.69
2023-05-25T05:01:29.416Z,99199.41
2023-05-25T05:03:09.082Z,99205.28
2023-05-25T05:04:42.529Z,99199.19
2023-05-25T05:06:16.393Z,99209.94
2023-05-25T05:07:49.838Z,99195.25
2023-05-25T05:09:23.645Z,99189.56
2023-05-25T05:10:57.627Z,99193.28
2023-05-25T05:12:32.350Z,99191.16
2023-05-25T05:14:07.334Z,99191.41
2023-05-25T05:15:41.076Z,99188.28
2023-05-25T05:17:14.768Z,99188.41
2023-05-25T05:18:49.754Z,99186.16
2023-05-25T05:20:23.572Z,99189.25
2023-05-25T05:21:57.667Z,99187.88
2023-05-25T05:23:34.031Z,99185.66
2023-05-25T05:25:08.507Z,99187.09
2023-05-25T05:26:56.414Z,99185.84
2023-05-25T05:28:40.421Z,99188.47
2023-05-25T05:30:14.919Z,99199.88
2023-05-25T05:31:48.617Z,99205.16
2023-05-25T05:33:24.036Z,99208.16
2023-05-25T05:34:58.921Z,99201.56
2023-05-25T05:36:56.721Z,99204.84
2023-05-25T05:38:32.360Z,99211.13
2023-05-25T05:40:06.711Z,99212.81
2023-05-25T05:41:43.903Z,99212.06
2023-05-25T05:43:16.518Z,99218.28
2023-05-25T05:44:49.914Z,99214.75
2023-05-25T05:46:23.657Z,99214.16
2023-05-25T05:47:57.710Z,99219.66
2023-05-25T05:49:31.805Z,99218.47
2023-05-25T05:51:08.525Z,99216.16
2023-05-25T05:52:41.926Z,99216.38
2023-05-25T05:54:16.855Z,99222.75
2023-05-25T05:55:56.142Z,99216.16
2023-05-25T05:57:30.718Z,99214.28
2023-05-25T05:59:05.646Z,99226.31
2023-05-25T06:00:38.975Z,99220.84
2023-05-25T06:02:14.045Z,99224.72
2023-05-25T06:03:47.632Z,99222.22
2023-05-25T06:05:21.641Z,99226.25
2023-05-25T06:06:56.512Z,99225.50
2023-05-25T06:08:29.878Z,99232.47
2023-05-25T06:10:03.449Z,99228.75
2023-05-25T06:11:40.158Z,99225.41
2023-05-25T06:13:14.881Z,99223.66
2023-05-25T06:14:52.164Z,99225.97
2023-05-25T06:16:25.902Z,99221.69
2023-05-25T06:17:59.331Z,99226.47
2023-05-25T06:19:32.961Z,99227.19
2023-05-25T06:21:07.248Z,99226.88
2023-05-25T06:22:41.903Z,99220.28
2023-05-25T06:24:16.747Z,99223.66
2023-05-25T06:25:53.515Z,99217.53
2023-05-25T06:27:27.035Z,99221.31
2023-05-25T06:29:00.296Z,99232.09
2023-05-25T06:30:33.676Z,99222.63
2023-05-25T06:32:10.987Z,99228.59
2023-05-25T06:33:45.122Z,99228.59
2023-05-25T06:35:19.959Z,99211.63
2023-05-25T06:36:56.394Z,99235.78
2023-05-25T06:38:31.385Z,99228.59
2023-05-25T06:40:05.266Z,99225.75
2023-05-25T06:41:40.635Z,99222.13
2023-05-25T06:43:14.259Z,99231.28
2023-05-25T06:45:00.512Z,99231.16
2023-05-25T06:46:34.298Z,99228.59
2023-05-25T06:48:07.934Z,99231.03
2023-05-25T06:49:42.036Z,99233.97
2023-05-25T06:51:15.360Z,99229.88
2023-05-25T06:52:48.749Z,99225.78
2023-05-25T06:54:23.356Z,99223.25
2023-05-25T06:55:56.792Z,99220.88
2023-05-25T06:57:30.134Z,99226.16
2023-05-25T06:59:03.529Z,99225.53
2023-05-25T07:00:36.941Z,99222.06
2023-05-25T07:02:10.420Z,99225.59
2023-05-25T07:03:44.516Z,99220.53
2023-05-25T07:05:18.624Z,99226.00
2023-05-25T07:06:52.780Z,99226.47
2023-05-25T07:08:26.094Z,99219.16
2023-05-25T07:10:00.970Z,99220.72
2023-05-25T07:11:34.593Z,99225.75
2023-05-25T07:13:07.883Z,99222.75
2023-05-25T07:14:41.264Z,99225.03
2023-05-25T07:16:13.701Z,99225.66
2023-05-25T07:17:47.496Z,99224.34
2023-05-25T07:19:20.756Z,99225.84
2023-05-25T07:20:54.776Z,99227.03
2023-05-25T07:22:28.096Z,99235.75
2023-05-25T07:24:01.964Z,99231.31
2023-05-25T07:25:37.319Z,99232.59
2023-05-25T07:27:10.634Z,99224.69
2023-05-25T07:28:43.787Z,99229.13
2023-05-25T07:30:17.457Z,99225.56
2023-05-25T07:31:50.848Z,99222.78
2023-05-25T07:33:24.466Z,99229.03
2023-05-25T07:34:57.708Z,99231.00
2023-05-25T07:36:31.232Z,99220.22
2023-05-25T07:38:05.620Z,99219.75
2023-05-25T07:39:40.934Z,99220.19
2023-05-25T07:41:15.821Z,99214.41
2023-05-25T07:42:49.104Z,99219.72
2023-05-25T07:44:22.654Z,99221.28
2023-05-25T07:45:55.945Z,99218.94
2023-05-25T07:47:29.911Z,99219.47
2023-05-25T07:49:04.806Z,99213.31
2023-05-25T07:50:38.473Z,99218.06
2023-05-25T07:52:12.008Z,99209.13
2023-05-25T07:53:45.471Z,99217.47
2023-05-25T07:55:20.231Z,99208.28
2023-05-25T07:56:55.043Z,99213.59
2023-05-25T07:58:28.253Z,99208.13
2023-05-25T08:00:01.588Z,99210.09
2023-05-25T08:01:36.163Z,99210.81
2023-05-25T08:03:09.692Z,99207.25
2023-05-25T08:04:43.156Z,99203.91
2023-05-25T08:06:16.552Z,99203.03
2023-05-25T08:07:49.952Z,99210.09
2023-05-25T08:09:23.243Z,99202.94
2023-05-25T08:10:56.458Z,99212.81
2023-05-25T08:12:46.703Z,99204.00
2023-05-25T08:14:23.723Z,99203.38
2023-05-25T08:15:57.365Z,99204.47
2023-05-25T08:17:30.601Z,99192.66
2023-05-25T08:19:04.255Z,99206.81
2023-05-25T08:20:37.978Z,99202.31
2023-05-25T08:22:11.688Z,99197.09
2023-05-25T08:23:44.830Z,99195.59
2023-05-25T08:25:18.138Z,99197.06
2023-05-25T08:26:54.978Z,99199.66
2023-05-25T08:28:29.990Z,99202.63
2023-05-25T08:30:03.227Z,99197.03
2023-05-25T08:31:37.506Z,99195.06
2023-05-25T08:33:11.850Z,99201.06
2023-05-25T08:34:45.664Z,99194.25
2023-05-25T08:36:18.845Z,99193.38
2023-05-25T08:37:52.166Z,99200.75
2023-05-25T08:39:25.713Z,99191.97
2023-05-25T08:41:06.288Z,99196.47
2023-05-25T08:42:39.484Z,99189.50
2023-05-25T08:44:15.551Z,99194.41
2023-05-25T08:45:49.093Z,99197.22
2023-05-25T08:47:24.574Z,99185.38
2023-05-25T08:49:02.139Z,99183.66
2023-05-25T08:50:36.626Z,99187.75
2023-05-25T08:52:12.719Z,99182.44
2023-05-25T08:53:47.306Z,99181.97
2023-05-25T08:55:24.176Z,99192.44
2023-05-25T08:57:02.879Z,99185.31
2023-05-25T08:58:45.498Z,99181.25
2023-05-25T09:00:25.533Z,99177.94
2023-05-25T09:02:07.880Z,99171.41
2023-05-25T09:03:44.103Z,99179.81
2023-05-25T09:05:17.604Z,99181.31
2023-05-25T09:07:05.907Z,99175.50
2023-05-25T09:08:43.589Z,99183.81
2023-05-25T09:10:19.433Z,99177.38
2023-05-25T09:11:53.082Z,99178.69
2023-05-25T09:13:26.486Z,99183.63
2023-05-25T09:14:59.987Z,99176.75
2023-05-25T09:16:36.370Z,99176.09
2023-05-25T09:18:11.010Z,99178.19
2023-05-25T09:19:47.193Z,99169.03
2023-05-25T09:21:20.610Z,99179.97
2023-05-25T09:22:54.083Z,99169.09
2023-05-25T09:24:27.686Z,99168.47
2023-05-25T09:26:02.609Z,99171.91
2023-05-25T09:27:38.277Z,99161.81
2023-05-25T09:29:15.190Z,99160.47
2023-05-25T09:30:48.780Z,99166.44
2023-05-25T09:32:24.376Z,99174.38
2023-05-25T09:34:00.402Z,99164.09
2023-05-25T09:35:33.932Z,99170.44
2023-05-25T09:37:13.114Z,99162.50
2023-05-25T09:38:47.289Z,99155.88
2023-05-25T09:40:21.323Z,99160.50
2023-05-25T09:41:54.573Z,99158.03
2023-05-25T09:43:41.353Z,99157.94
2023-05-25T09:45:16.494Z,99149.72
2023-05-25T09:46:49.938Z,99160.09
2023-05-25T09:48:24.872Z,99160.22
2023-05-25T09:49:58.826Z,99162.13
2023-05-25T09:51:33.258Z,99158.25
2023-05-25T09:53:08.795Z,99155.53
2023-05-25T09:54:45.622Z,99149.88
2023-05-25T09:56:19.719Z,99152.72
2023-05-25T09:57:54.835Z,99151.03
2023-05-25T09:59:28.910Z,99156.03
2023-05-25T10:01:02.263Z,99153.53
2023-05-25T10:02:35.687Z,99142.97
2023-05-25T10:04:10.378Z,99144.59
2023-05-25T10:05:43.850Z,99141.63
2023-05-25T10:07:17.425Z,99144.09
2023-05-25T10:08:51.334Z,99144.72
2023-05-25T10:10:25.584Z,99124.44
2023-05-25T10:12:01.428Z,99127.03
2023-05-25T10:13:35.392Z,99126.13
2023-05-25T10:15:12.489Z,99115.59
2023-05-25T10:16:50.204Z,99121.72
2023-05-25T10:18:27.029Z,99129.75
2023-05-25T10:20:05.501Z,99123.16
2023-05-25T10:21:41.769Z,99112.44
2023-05-25T10:23:21.372Z,99113.03
2023-05-25T10:24:57.332Z,99119.47
2023-05-25T10:26:34.681Z,99117.31
2023-05-25T10:28:14.031Z,99111.53
2023-05-25T10:29:49.407Z,99108.44
2023-05-25T10:31:23.483Z,99107.56
2023-05-25T10:32:57.351Z,99103.41
2023-05-25T10:34:31.103Z,99097.41
2023-05-25T10:36:11.174Z,99098.91
2023-05-25T10:37:46.277Z,99096.13
2023-05-25T10:39:21.388Z,99099.66
2023-05-25T10:40:57.392Z,99099.66
2023-05-25T10:42:31.614Z,99086.38
2023-05-25T10:44:05.281Z,99077.13
2023-05-25T10:45:38.514Z,99080.91
2023-05-25T10:47:12.255Z,99076.63
2023-05-25T10:48:47.894Z,99077.84
2023-05-25T10:50:23.063Z,99084.69
2023-05-25T10:52:01.192Z,99095.59
2023-05-25T10:53:34.541Z,99093.56
2023-05-25T10:55:09.618Z,99090.28
2023-05-25T10:57:10.648Z,99099.38
2023-05-25T10:58:45.232Z,99083.69
2023-05-25T11:00:19.509Z,99088.16
2023-05-25T11:01:53.292Z,99081.91
2023-05-25T11:03:56.117Z,99077.34
2023-05-25T11:05:38.434Z,99075.94
2023-05-25T11:07:16.871Z,99074.91
2023-05-25T11:08:51.677Z,99061.03
2023-05-25T11:10:53.202Z,99066.31
2023-05-25T11:12:28.095Z,99076.41
2023-05-25T11:14:03.247Z,99064.72
2023-05-25T11:15:36.580Z,99066.84
2023-05-25T11:17:12.238Z,99065.31
2023-05-25T11:18:47.271Z,99065.44
2023-05-25T11:20:29.149Z,99057.63
2023-05-25T11:22:16.867Z,99055.59
2023-05-25T11:23:58.073Z,99076.00
2023-05-25T11:25:39.876Z,99083.81
2023-05-25T11:27:13.748Z,99083.28
2023-05-25T11:28:48.227Z,99090.56
2023-05-25T11:30:21.886Z,99093.59
2023-05-25T11:31:56.728Z,99080.00
2023-05-25T11:33:30.028Z,99084.25
2023-05-25T11:35:03.571Z,99084.78
2023-05-25T11:36:38.004Z,99083.44
2023-05-25T11:38:12.814Z,99076.00
2023-05-25T11:39:48.763Z,99080.25
2023-05-25T11:41:23.594Z,99077.06
2023-05-25T11:43:00.708Z,99071.63
2023-05-25T11:44:36.385Z,99073.09
2023-05-25T11:46:11.011Z,99065.31
2023-05-25T11:47:44.569Z,99058.00
2023-05-25T11:49:18.040Z,99067.88
2023-05-25T11:51:05.734Z,99053.28
2023-05-25T11:52:38.935Z,99049.84
2023-05-25T11:54:23.015Z,99038.63
2023-05-25T11:56:07.061Z,99045.25
2023-05-25T11:57:41.897Z,99047.47
2023-05-25T11:59:15.153Z,99044.41
2023-05-25T12:00:49.234Z,99035.53
2023-05-25T12:02:23.727Z,99038.81
2023-05-25T12:03:57.633Z,99048.97
2023-05-25T12:05:39.215Z,99050.53
2023-05-25T12:07:13.116Z,99053.25
2023-05-25T12:08:46.504Z,99053.22
2023-05-25T12:10:21.382Z,99061.28
2023-05-25T12:11:55.184Z,99066.78
2023-05-25T12:13:28.915Z,99065.78
2023-05-25T12:15:04.010Z,99070.53
2023-05-25T12:16:39.021Z,99058.13
2023-05-25T12:18:12.483Z,99060.69
2023-05-25T12:19:47.189Z,99060.69
2023-05-25T12:21:21.989Z,99063.06
2023-05-25T12:22:55.593Z,99050.50
2023-05-25T12:24:29.118Z,99055.94
2023-05-25T12:26:13.412Z,99056.94
2023-05-25T12:27:46.756Z,99060.31
2023-05-25T12:29:20.225Z,99051.78
2023-05-25T12:30:53.536Z,99057.88
2023-05-25T12:32:27.534Z,99060.97
2023-05-25T12:34:11.505Z,99062.53
2023-05-25T12:35:48.890Z,99067.44
2023-05-25T12:37:23.420Z,99068.81
2023-05-25T12:39:00.756Z,99067.13
2023-05-25T12:40:34.004Z,99069.47
2023-05-25T12:42:15.461Z,99069.13
2023-05-25T12:43:48.921Z,99065.56
2023-05-25T12:45:22.692Z,99074.22
2023-05-25T12:46:57.575Z,99067.53
2023-05-25T12:48:31.845Z,99060.00
2023-05-25T12:50:13.213Z,99056.44
2023-05-25T12:51:47.019Z,99061.03
2023-05-25T12:53:20.173Z,99059.88
2023-05-25T12:54:53.429Z,99055.09
2023-05-25T12:56:29.171Z,99052.75
2023-05-25T12:58:06.563Z,99042.88
2023-05-25T12:59:41.010Z,99049.72
2023-05-25T13:01:14.602Z,99051.75
2023-05-25T13:02:49.584Z,99047.97
2023-05-25T13:04:24.751Z,99054.84
2023-05-25T13:06:02.558Z,99056.91
2023-05-25T13:07:36.116Z,99054.19
2023-05-25T13:09:10.002Z,99059.63
2023-05-25T13:10:46.523Z,99057.75
2023-05-25T13:12:19.735Z,99061.66
2023-05-25T13:13:54.425Z,99063.41
2023-05-25T13:15:28.512Z,99063.94
2023-05-25T13:17:02.428Z,99061.44
2023-05-25T13:18:36.382Z,99061.41
2023-05-25T13:20:10.286Z,99049.16
2023-05-25T13:21:43.546Z,99053.88
2023-05-25T13:23:17.446Z,99046.75
2023-05-25T13:24:50.624Z,99044.97
2023-05-25T13:26:27.909Z,99042.22
2023-05-25T13:28:01.281Z,99038.13
2023-05-25T13:29:36.716Z,99040.47
2023-05-25T13:31:09.956Z,99040.81
2023-05-25T13:32:44.487Z,99037.91
2023-05-25T13:34:17.841Z,99039.13
2023-05-25T13:35:59.288Z,99049.66
2023-05-25T13:37:33.455Z,99060.22
2023-05-25T13:39:07.441Z,99068.06
2023-05-25T13:40:40.649Z,99075.25
2023-05-25T13:42:14.944Z,99079.91
2023-05-25T13:43:48.617Z,99065.78
2023-05-25T13:45:23.717Z,99077.34
2023-05-25T13:46:57.082Z,99066.03
2023-05-25T13:48:31.255Z,99067.66
2023-05-25T13:50:04.724Z,99063.19
2023-05-25T13:51:38.641Z,99058.41
2023-05-25T13:53:12.945Z,99047.78
2023-05-25T13:54:46.454Z,99057.41
